createdAt,value
2023-02-08T00:01:00.924Z,28.30
2023-02-08T00:03:29.286Z,27.17
2023-02-08T00:05:56.912Z,28.25
2023-02-08T00:08:24.546Z,28.27
2023-02-08T00:10:52.444Z,27.55
2023-02-08T00:13:20.816Z,26.00
2023-02-08T00:15:48.588Z,25.65
2023-02-08T00:18:16.132Z,28.52
2023-02-08T00:20:44.357Z,26.55
2023-02-08T00:23:13.202Z,28.80
2023-02-08T00:25:41.510Z,26.98
2023-02-08T00:28:13.756Z,25.63
2023-02-08T00:30:43.466Z,25.65
2023-02-08T00:33:12.190Z,23.70
2023-02-08T00:35:41.219Z,25.60
2023-02-08T00:38:08.769Z,24.50
2023-02-08T00:40:36.230Z,26.15
2023-02-08T00:43:03.972Z,25.48
2023-02-08T00:45:33.077Z,25.35
2023-02-08T00:48:00.549Z,24.30
2023-02-08T00:50:28.053Z,25.73
2023-02-08T00:52:55.504Z,25.92
2023-02-08T00:55:22.971Z,23.35
2023-02-08T00:57:50.525Z,22.05
2023-02-08T01:00:18.310Z,21.92
2023-02-08T01:02:45.883Z,21.95
2023-02-08T01:05:13.416Z,21.05
2023-02-08T01:07:41.201Z,22.35
2023-02-08T01:10:12.516Z,22.08
2023-02-08T01:12:41.979Z,20.63
2023-02-08T01:15:09.780Z,22.60
2023-02-08T01:17:38.804Z,21.10
2023-02-08T01:20:06.738Z,20.75
2023-02-08T01:22:34.247Z,21.00
2023-02-08T01:25:01.972Z,21.30
2023-02-08T01:27:30.410Z,21.00
2023-02-08T01:29:57.850Z,20.75
2023-02-08T01:32:25.334Z,21.85
2023-02-08T01:34:54.507Z,21.02
2023-02-08T01:37:22.381Z,20.52
2023-02-08T01:39:49.896Z,20.00
2023-02-08T01:42:19.359Z,20.10
2023-02-08T01:45:20.910Z,24.25
2023-02-08T01:47:54.879Z,27.52
2023-02-08T01:50:27.373Z,34.28
2023-02-08T01:52:55.015Z,32.00
2023-02-08T01:55:34.417Z,36.70
2023-02-08T01:58:06.384Z,41.88
2023-02-08T02:00:34.179Z,36.33
2023-02-08T02:03:04.022Z,26.98
2023-02-08T02:05:38.650Z,29.15
2023-02-08T02:08:07.147Z,24.42
2023-02-08T02:10:36.423Z,22.23
2023-02-08T02:13:17.489Z,23.50
2023-02-08T02:15:46.284Z,19.65
2023-02-08T02:18:23.350Z,20.38
2023-02-08T02:21:10.227Z,19.85
2023-02-08T02:24:11.854Z,20.02
2023-02-08T02:26:39.311Z,19.48
2023-02-08T02:29:26.049Z,19.35
2023-02-08T02:32:25.357Z,19.55
2023-02-08T02:35:28.211Z,20.02
2023-02-08T02:38:07.868Z,19.17
2023-02-08T02:41:15.044Z,20.05
2023-02-08T02:43:47.365Z,20.00
2023-02-08T02:46:41.812Z,19.80
2023-02-08T02:49:37.262Z,19.70
2023-02-08T02:52:26.261Z,19.15
2023-02-08T02:54:59.293Z,19.88
2023-02-08T02:57:32.558Z,21.42
2023-02-08T03:00:00.976Z,20.15
2023-02-08T03:02:28.844Z,19.42
2023-02-08T03:04:57.914Z,19.58
2023-02-08T03:07:28.322Z,20.73
2023-02-08T03:10:20.755Z,19.88
2023-02-08T03:13:19.598Z,19.85
2023-02-08T03:16:13.229Z,21.83
2023-02-08T03:19:05.090Z,21.08
2023-02-08T03:21:35.416Z,21.98
2023-02-08T03:24:17.987Z,21.60
2023-02-08T03:27:04.904Z,21.27
2023-02-08T03:29:45.052Z,21.05
2023-02-08T03:32:35.219Z,22.73
2023-02-08T03:35:16.431Z,23.23
2023-02-08T03:37:53.851Z,23.67
2023-02-08T03:40:27.460Z,26.15
2023-02-08T03:42:59.030Z,24.70
2023-02-08T03:45:31.759Z,23.73
2023-02-08T03:48:03.797Z,24.77
2023-02-08T03:50:35.056Z,24.60
2023-02-08T03:53:04.181Z,25.38
2023-02-08T03:55:35.598Z,26.10
2023-02-08T03:58:19.971Z,25.73
2023-02-08T04:01:06.034Z,26.52
2023-02-08T04:03:35.165Z,29.02
2023-02-08T04:06:03.112Z,29.92
2023-02-08T04:08:30.722Z,29.50
2023-02-08T04:10:58.723Z,28.38
2023-02-08T04:13:26.234Z,27.92
2023-02-08T04:15:53.825Z,29.08
2023-02-08T04:18:21.360Z,29.95
2023-02-08T04:20:48.781Z,28.48
2023-02-08T04:23:16.292Z,29.75
2023-02-08T04:25:44.183Z,31.25
2023-02-08T04:28:11.797Z,31.40
2023-02-08T04:30:39.523Z,31.70
2023-02-08T04:33:07.222Z,30.33
2023-02-08T04:35:34.683Z,31.67
2023-02-08T04:38:02.249Z,33.13
2023-02-08T04:40:30.034Z,32.30
2023-02-08T04:42:57.638Z,32.60
2023-02-08T04:45:27.150Z,34.35
2023-02-08T04:47:54.720Z,32.97
2023-02-08T04:50:22.169Z,33.67
2023-02-08T04:52:49.728Z,32.13
2023-02-08T04:55:17.140Z,33.72
2023-02-08T04:57:44.787Z,32.25
2023-02-08T05:00:13.023Z,32.35
2023-02-08T05:02:40.582Z,33.90
2023-02-08T05:05:08.345Z,33.50
2023-02-08T05:07:35.895Z,33.70
2023-02-08T05:10:04.990Z,33.08
2023-02-08T05:12:32.582Z,32.75
2023-02-08T05:15:00.005Z,35.65
2023-02-08T05:17:27.519Z,35.50
2023-02-08T05:19:54.981Z,33.80
2023-02-08T05:22:22.880Z,35.70
2023-02-08T05:24:50.336Z,34.72
2023-02-08T05:27:17.865Z,35.40
2023-02-08T05:29:45.335Z,33.40
2023-02-08T05:32:12.973Z,36.10
2023-02-08T05:34:40.645Z,37.88
2023-02-08T05:37:09.056Z,37.60
2023-02-08T05:39:58.044Z,39.25
2023-02-08T05:42:25.556Z,36.33
2023-02-08T05:44:53.065Z,37.45
2023-02-08T05:47:20.715Z,37.08
2023-02-08T05:49:48.120Z,39.35
2023-02-08T05:52:15.635Z,39.95
2023-02-08T05:54:43.132Z,39.15
2023-02-08T05:57:10.655Z,37.70
2023-02-08T05:59:38.102Z,40.40
2023-02-08T06:02:05.576Z,49.40
2023-02-08T06:04:33.079Z,43.20
2023-02-08T06:07:00.610Z,40.33
2023-02-08T06:09:28.099Z,41.13
2023-02-08T06:11:55.572Z,38.22
2023-02-08T06:14:23.320Z,40.67
2023-02-08T06:16:50.820Z,39.35
2023-02-08T06:19:18.479Z,36.67
2023-02-08T06:21:45.952Z,37.15
2023-02-08T06:24:13.852Z,39.10
2023-02-08T06:26:41.334Z,39.58
2023-02-08T06:29:10.355Z,39.33
2023-02-08T06:31:37.823Z,37.00
2023-02-08T06:34:05.251Z,37.70
2023-02-08T06:36:32.974Z,38.22
2023-02-08T06:39:00.450Z,37.80
2023-02-08T06:41:27.993Z,38.50
2023-02-08T06:43:55.416Z,36.00
2023-02-08T06:46:22.943Z,39.20
2023-02-08T06:48:50.405Z,38.50
2023-02-08T06:51:17.863Z,38.65
2023-02-08T06:53:45.410Z,38.50
2023-02-08T06:56:12.890Z,37.50
2023-02-08T06:58:40.354Z,38.35
2023-02-08T07:01:12.225Z,37.92
2023-02-08T07:03:40.523Z,36.00
2023-02-08T07:06:15.504Z,36.97
2023-02-08T07:08:43.508Z,36.20
2023-02-08T07:11:13.824Z,36.72
2023-02-08T07:13:42.086Z,35.15
2023-02-08T07:16:10.261Z,36.42
2023-02-08T07:18:37.845Z,35.38
2023-02-08T07:21:05.782Z,34.28
2023-02-08T07:23:33.339Z,35.80
2023-02-08T07:26:03.169Z,35.53
2023-02-08T07:28:31.285Z,36.88
2023-02-08T07:30:58.757Z,35.42
2023-02-08T07:33:26.716Z,35.47
2023-02-08T07:35:54.441Z,36.78
2023-02-08T07:38:22.014Z,36.92
2023-02-08T07:40:49.520Z,35.85
2023-02-08T07:43:17.003Z,35.03
2023-02-08T07:45:54.140Z,35.60
2023-02-08T07:48:21.921Z,36.53
2023-02-08T07:50:49.358Z,35.45
2023-02-08T07:53:16.862Z,34.83
2023-02-08T07:55:45.829Z,35.78
2023-02-08T07:58:14.469Z,35.47
2023-02-08T08:00:42.127Z,36.88
2023-02-08T08:03:10.603Z,36.40
2023-02-08T08:05:41.469Z,37.63
2023-02-08T08:08:10.351Z,36.40
2023-02-08T08:10:38.294Z,35.88
2023-02-08T08:13:06.082Z,36.38
2023-02-08T08:15:33.617Z,35.95
2023-02-08T08:18:01.203Z,36.58
2023-02-08T08:20:28.733Z,35.38
2023-02-08T08:22:56.371Z,35.42
2023-02-08T08:25:23.952Z,37.30
2023-02-08T08:27:51.498Z,34.53
2023-02-08T08:30:19.012Z,36.05
2023-02-08T08:32:46.735Z,32.78
2023-02-08T08:35:14.493Z,34.33
2023-02-08T08:37:42.100Z,36.58
2023-02-08T08:40:10.269Z,35.58
2023-02-08T08:42:40.027Z,32.33
2023-02-08T08:45:09.155Z,30.98
2023-02-08T08:47:36.729Z,33.10
2023-02-08T08:50:04.330Z,32.78
2023-02-08T08:52:31.788Z,33.55
2023-02-08T08:54:59.354Z,31.52
2023-02-08T08:57:26.802Z,30.10
2023-02-08T08:59:54.244Z,29.38
2023-02-08T09:02:21.765Z,29.25
2023-02-08T09:04:49.350Z,29.65
2023-02-08T09:07:16.819Z,30.52
2023-02-08T09:09:48.096Z,30.25
2023-02-08T09:12:16.145Z,26.65
2023-02-08T09:14:45.006Z,26.85
2023-02-08T09:17:12.783Z,28.58
2023-02-08T09:19:40.267Z,27.63
2023-02-08T09:22:07.775Z,29.77
2023-02-08T09:24:35.506Z,26.83
2023-02-08T09:27:03.755Z,27.75
2023-02-08T09:29:32.939Z,27.83
2023-02-08T09:32:00.656Z,28.65
2023-02-08T09:34:28.424Z,27.63
2023-02-08T09:36:55.871Z,24.77
2023-02-08T09:39:25.381Z,26.70
2023-02-08T09:41:52.774Z,28.00
2023-02-08T09:44:42.950Z,27.27
2023-02-08T09:47:19.279Z,27.90
2023-02-08T09:50:21.398Z,27.20
2023-02-08T09:53:00.988Z,26.23
2023-02-08T09:55:44.048Z,26.77
2023-02-08T09:58:28.958Z,26.77
2023-02-08T10:00:56.836Z,27.08
2023-02-08T10:03:33.949Z,26.65
2023-02-08T10:06:03.753Z,25.23
2023-02-08T10:08:35.278Z,26.23
2023-02-08T10:11:07.343Z,25.60
2023-02-08T10:13:51.404Z,23.50
2023-02-08T10:16:36.879Z,24.25
2023-02-08T10:19:21.520Z,23.35
2023-02-08T10:22:08.818Z,23.20
2023-02-08T10:24:54.612Z,25.88
2023-02-08T10:27:48.047Z,21.35
2023-02-08T10:30:21.321Z,21.10
2023-02-08T10:33:23.943Z,22.98
2023-02-08T10:35:54.122Z,22.33
2023-02-08T10:38:21.570Z,22.63
2023-02-08T10:41:03.014Z,21.63
2023-02-08T10:43:35.286Z,23.05
2023-02-08T10:46:26.325Z,22.98
2023-02-08T10:49:11.596Z,20.52
2023-02-08T10:51:39.228Z,21.95
2023-02-08T10:54:06.749Z,20.42
2023-02-08T10:56:48.798Z,20.38
2023-02-08T10:59:28.230Z,20.65
2023-02-08T11:01:56.938Z,20.25
2023-02-08T11:04:24.604Z,21.08
2023-02-08T11:06:54.612Z,19.73
2023-02-08T11:09:30.486Z,20.90
2023-02-08T11:12:00.855Z,19.77
2023-02-08T11:14:47.187Z,22.25
2023-02-08T11:17:34.209Z,19.80
2023-02-08T11:20:01.965Z,20.75
2023-02-08T11:22:31.483Z,19.45
2023-02-08T11:25:02.053Z,20.02
2023-02-08T11:27:33.566Z,19.98
2023-02-08T11:30:21.158Z,19.02
2023-02-08T11:33:08.992Z,20.38
2023-02-08T11:35:37.908Z,20.48
2023-02-08T11:38:05.452Z,20.45
2023-02-08T11:40:42.804Z,18.55
2023-02-08T11:43:29.878Z,20.15
2023-02-08T11:45:59.518Z,20.20
2023-02-08T11:48:38.081Z,20.00
2023-02-08T11:51:06.916Z,20.10
2023-02-08T11:53:39.704Z,19.13
2023-02-08T11:56:19.876Z,21.55
2023-02-08T11:58:56.448Z,19.73
2023-02-08T12:01:29.572Z,20.92
2023-02-08T12:03:59.828Z,18.73
2023-02-08T12:06:47.507Z,19.30
2023-02-08T12:09:39.278Z,18.88
2023-02-08T12:12:53.208Z,18.33
2023-02-08T12:15:57.129Z,19.40
2023-02-08T12:19:01.359Z,19.13
2023-02-08T12:21:44.947Z,19.17
2023-02-08T12:24:25.004Z,17.88
2023-02-08T12:27:12.249Z,16.05
2023-02-08T12:29:55.907Z,17.13
2023-02-08T12:32:48.295Z,18.10
2023-02-08T12:35:45.730Z,15.95
2023-02-08T12:38:51.559Z,17.27
2023-02-08T12:41:30.296Z,16.80
2023-02-08T12:44:10.004Z,18.10
2023-02-08T12:47:14.425Z,18.77
2023-02-08T12:49:53.472Z,15.88
2023-02-08T12:52:42.512Z,16.77
2023-02-08T12:55:26.602Z,18.08
2023-02-08T12:57:59.153Z,17.77
2023-02-08T13:00:30.418Z,15.27
2023-02-08T13:03:32.154Z,16.90
2023-02-08T13:06:04.558Z,14.43
2023-02-08T13:08:35.201Z,15.63
2023-02-08T13:11:19.844Z,17.48
2023-02-08T13:14:14.291Z,16.23
2023-02-08T13:16:47.045Z,17.23
2023-02-08T13:19:36.001Z,17.57
2023-02-08T13:22:05.270Z,17.25
2023-02-08T13:24:39.404Z,16.42
2023-02-08T13:27:08.318Z,16.80
2023-02-08T13:29:36.498Z,17.00
2023-02-08T13:32:09.789Z,16.65
2023-02-08T13:34:43.159Z,16.80
2023-02-08T13:37:30.955Z,18.02
2023-02-08T13:40:03.538Z,17.48
2023-02-08T13:42:39.795Z,16.13
2023-02-08T13:45:09.991Z,17.48
2023-02-08T13:47:46.370Z,16.70
2023-02-08T13:50:48.295Z,17.25
2023-02-08T13:53:17.500Z,16.27
2023-02-08T13:56:00.232Z,13.93
2023-02-08T13:59:01.163Z,13.55
2023-02-08T14:01:33.101Z,13.90
2023-02-08T14:04:12.295Z,13.77
2023-02-08T14:06:46.792Z,12.68
2023-02-08T14:09:27.316Z,14.85
2023-02-08T14:12:01.371Z,15.52
2023-02-08T14:14:32.417Z,15.30
2023-02-08T14:17:19.326Z,16.05
2023-02-08T14:20:00.490Z,16.75
2023-02-08T14:22:39.187Z,17.63
2023-02-08T14:25:26.478Z,16.73
2023-02-08T14:28:32.676Z,16.70
2023-02-08T14:31:04.658Z,19.92
2023-02-08T14:33:36.159Z,17.80
2023-02-08T14:36:07.246Z,17.95
2023-02-08T14:38:51.424Z,16.88
2023-02-08T14:41:43.707Z,17.70
2023-02-08T14:44:39.448Z,17.00
2023-02-08T14:47:37.023Z,18.38
2023-02-08T14:50:04.595Z,18.10
2023-02-08T14:52:35.518Z,17.50
2023-02-08T14:55:08.542Z,16.08
2023-02-08T14:57:37.032Z,12.27
2023-02-08T15:00:25.738Z,16.58
2023-02-08T15:02:54.221Z,16.67
2023-02-08T15:05:39.132Z,17.17
2023-02-08T15:08:06.696Z,17.75
2023-02-08T15:10:35.280Z,15.30
2023-02-08T15:13:06.866Z,15.82
2023-02-08T15:15:39.138Z,17.05
2023-02-08T15:18:18.689Z,16.48
2023-02-08T15:21:17.205Z,18.27
2023-02-08T15:24:04.278Z,16.00
2023-02-08T15:26:33.054Z,16.67
2023-02-08T15:29:01.154Z,17.67
2023-02-08T15:31:33.991Z,17.65
2023-02-08T15:34:02.373Z,18.63
2023-02-08T15:36:33.087Z,18.33
2023-02-08T15:39:11.169Z,17.98
2023-02-08T15:41:38.709Z,17.15
2023-02-08T15:44:21.154Z,16.67
2023-02-08T15:49:25.078Z,17.45
2023-02-08T15:51:57.180Z,25.45
2023-02-08T15:54:25.023Z,21.80
2023-02-08T15:57:20.320Z,20.83
2023-02-08T15:59:48.993Z,19.23
2023-02-08T16:02:18.503Z,18.27
2023-02-08T16:04:47.235Z,20.08
2023-02-08T16:07:45.914Z,20.27
2023-02-08T16:10:28.467Z,19.50
2023-02-08T16:12:59.396Z,20.83
2023-02-08T16:15:41.714Z,20.00
2023-02-08T16:18:33.944Z,20.27
2023-02-08T16:21:04.504Z,19.98
2023-02-08T16:23:34.519Z,21.55
2023-02-08T16:26:19.365Z,21.45
2023-02-08T16:28:53.976Z,20.83
2023-02-08T16:31:26.953Z,21.13
2023-02-08T16:34:00.048Z,20.40
2023-02-08T16:36:41.406Z,23.27
2023-02-08T16:39:15.032Z,21.42
2023-02-08T16:44:58.012Z,21.00
2023-02-08T16:47:52.139Z,22.08
2023-02-08T16:52:59.991Z,22.58
2023-02-08T16:55:33.045Z,22.80
2023-02-08T16:58:00.620Z,21.50
2023-02-08T17:00:33.983Z,22.08
2023-02-08T17:03:01.717Z,22.13
2023-02-08T17:05:32.109Z,23.95
2023-02-08T17:08:00.176Z,23.73
2023-02-08T17:10:30.905Z,23.90
2023-02-08T17:13:21.638Z,23.42
2023-02-08T17:15:49.522Z,23.08
2023-02-08T17:18:17.392Z,23.23
2023-02-08T17:20:44.873Z,23.23
2023-02-08T17:23:13.207Z,23.35
2023-02-08T17:25:40.784Z,22.67
2023-02-08T17:28:17.288Z,24.02
2023-02-08T17:30:46.778Z,23.67
2023-02-08T17:33:18.517Z,22.10
2023-02-08T17:35:51.435Z,23.60
2023-02-08T17:38:20.708Z,24.73
2023-02-08T17:40:48.228Z,23.13
2023-02-08T17:43:16.163Z,22.50
2023-02-08T17:45:44.853Z,22.38
2023-02-08T17:48:15.690Z,24.00
2023-02-08T17:50:48.038Z,23.70
2023-02-08T17:53:16.042Z,23.08
2023-02-08T17:55:45.442Z,21.98
2023-02-08T17:58:13.485Z,23.98
2023-02-08T18:00:41.216Z,22.30
2023-02-08T18:03:08.958Z,22.02
2023-02-08T18:05:38.193Z,22.40
2023-02-08T18:08:05.809Z,22.42
2023-02-08T18:10:33.298Z,21.85
2023-02-08T18:13:00.907Z,23.30
2023-02-08T18:15:28.506Z,21.85
2023-02-08T18:17:56.158Z,20.88
2023-02-08T18:20:23.543Z,22.90
2023-02-08T18:22:51.159Z,22.05
2023-02-08T18:25:19.167Z,22.85
2023-02-08T18:27:46.647Z,21.90
2023-02-08T18:30:14.367Z,21.90
2023-02-08T18:32:41.996Z,22.70
2023-02-08T18:35:09.649Z,23.00
2023-02-08T18:37:38.411Z,21.65
2023-02-08T18:40:08.575Z,22.10
2023-02-08T18:42:36.373Z,22.27
2023-02-08T18:45:06.187Z,22.42
2023-02-08T18:47:35.940Z,21.55
2023-02-08T18:50:04.417Z,21.15
2023-02-08T18:52:32.101Z,21.83
2023-02-08T18:54:59.609Z,23.80
2023-02-08T18:57:29.954Z,21.48
2023-02-08T18:59:57.403Z,22.50
2023-02-08T19:02:26.536Z,21.65
2023-02-08T19:04:54.208Z,23.67
2023-02-08T19:07:21.653Z,21.20
2023-02-08T19:09:50.057Z,23.25
2023-02-08T19:12:19.091Z,22.05
2023-02-08T19:14:50.672Z,21.92
2023-02-08T19:17:18.866Z,21.75
2023-02-08T19:19:46.699Z,20.17
2023-02-08T19:22:14.560Z,19.27
2023-02-08T19:24:42.085Z,20.25
2023-02-08T19:27:09.548Z,20.13
2023-02-08T19:29:37.098Z,19.85
2023-02-08T19:32:05.082Z,21.20
2023-02-08T19:34:32.542Z,18.75
2023-02-08T19:37:00.241Z,19.15
2023-02-08T19:39:28.004Z,20.58
2023-02-08T19:41:58.605Z,18.92
2023-02-08T19:44:29.037Z,17.75
2023-02-08T19:46:58.232Z,15.95
2023-02-08T19:49:27.420Z,16.08
2023-02-08T19:51:55.252Z,15.77
2023-02-08T19:54:23.650Z,15.00
2023-02-08T19:56:54.650Z,15.93
2023-02-08T19:59:27.821Z,14.38
2023-02-08T20:01:55.754Z,12.60
2023-02-08T20:04:24.278Z,12.73
2023-02-08T20:06:53.241Z,12.68
2023-02-08T20:09:21.457Z,13.00
2023-02-08T20:11:56.805Z,13.40
2023-02-08T20:14:26.802Z,12.18
2023-02-08T20:16:54.569Z,12.50
2023-02-08T20:19:22.354Z,12.18
2023-02-08T20:21:49.869Z,12.27
2023-02-08T20:24:17.811Z,13.27
2023-02-08T20:26:46.760Z,11.48
2023-02-08T20:29:14.761Z,11.88
2023-02-08T20:31:44.718Z,12.57
2023-02-08T20:34:14.697Z,11.73
2023-02-08T20:37:05.317Z,11.68
2023-02-08T20:39:34.362Z,12.32
2023-02-08T20:42:01.796Z,12.52
2023-02-08T20:44:29.407Z,12.45
2023-02-08T20:46:56.915Z,12.38
2023-02-08T20:49:25.790Z,13.60
2023-02-08T20:51:54.467Z,12.82
2023-02-08T20:54:24.636Z,11.45
2023-02-08T20:56:54.044Z,12.27
2023-02-08T20:59:22.066Z,11.48
2023-02-08T21:01:49.589Z,10.48
2023-02-08T21:04:18.143Z,11.00
2023-02-08T21:06:46.452Z,10.93
2023-02-08T21:09:16.053Z,10.35
2023-02-08T21:11:45.048Z,10.05
2023-02-08T21:14:18.850Z,10.82
2023-02-08T21:16:48.898Z,10.43
2023-02-08T21:19:17.417Z,9.98
2023-02-08T21:21:45.199Z,10.27
2023-02-08T21:24:12.728Z,9.60
2023-02-08T21:26:40.171Z,11.40
2023-02-08T21:29:08.222Z,11.30
2023-02-08T21:31:36.807Z,10.25
2023-02-08T21:34:06.006Z,10.63
2023-02-08T21:36:34.438Z,11.63
2023-02-08T21:39:01.941Z,11.43
2023-02-08T21:41:32.157Z,11.27
2023-02-08T21:44:02.404Z,10.48
2023-02-08T21:46:31.037Z,11.13
2023-02-08T21:49:17.236Z,11.80
2023-02-08T21:52:03.891Z,11.43
2023-02-08T21:54:43.083Z,11.15
2023-02-08T21:57:15.285Z,12.93
2023-02-08T21:59:43.601Z,11.65
2023-02-08T22:02:15.087Z,11.80
2023-02-08T22:05:01.391Z,11.60
2023-02-08T22:07:29.732Z,11.63
2023-02-08T22:09:57.442Z,12.00
2023-02-08T22:12:25.024Z,11.95
2023-02-08T22:14:52.538Z,11.80
2023-02-08T22:17:20.015Z,12.05
2023-02-08T22:19:47.825Z,11.73
2023-02-08T22:22:15.285Z,11.30
2023-02-08T22:24:42.766Z,12.20
2023-02-08T22:27:11.877Z,12.75
2023-02-08T22:29:39.333Z,11.85
2023-02-08T22:32:08.410Z,11.80
2023-02-08T22:34:38.627Z,11.68
2023-02-08T22:37:06.191Z,12.75
2023-02-08T22:39:34.300Z,11.50
2023-02-08T22:42:08.672Z,12.70
2023-02-08T22:44:36.379Z,11.20
2023-02-08T22:47:06.590Z,11.60
2023-02-08T22:49:34.962Z,11.85
2023-02-08T22:52:02.845Z,11.00
2023-02-08T22:54:30.338Z,12.80
2023-02-08T22:56:58.102Z,12.80
2023-02-08T22:59:25.581Z,10.95
2023-02-08T23:01:53.203Z,11.30
2023-02-08T23:04:20.923Z,11.13
2023-02-08T23:06:48.451Z,11.50
2023-02-08T23:09:16.415Z,11.50
2023-02-08T23:11:43.929Z,10.27
2023-02-08T23:14:11.557Z,10.00
2023-02-08T23:16:39.170Z,10.52
2023-02-08T23:19:07.077Z,11.32
2023-02-08T23:21:34.596Z,10.50
2023-02-08T23:24:02.555Z,11.30
2023-02-08T23:26:30.046Z,10.05
2023-02-08T23:28:57.534Z,10.45
2023-02-08T23:31:25.429Z,10.02
2023-02-08T23:33:52.946Z,10.38
2023-02-08T23:36:22.865Z,11.23
2023-02-08T23:38:51.148Z,10.98
2023-02-08T23:41:21.126Z,10.18
2023-02-08T23:43:50.346Z,10.90
2023-02-08T23:46:24.240Z,10.60
2023-02-08T23:48:52.394Z,11.02
2023-02-08T23:51:22.947Z,12.10
2023-02-08T23:53:51.438Z,11.38
2023-02-08T23:56:20.585Z,10.30
2023-02-08T23:58:50.167Z,11.27
